createdAt,value
2019-03-10T00:00:02.199Z,32
2019-03-10T00:00:09.173Z,31
2019-03-10T00:00:15.864Z,29
2019-03-10T00:00:26.991Z,30
2019-03-10T00:00:32.613Z,29
2019-03-10T00:00:36.063Z,30
2019-03-10T00:00:40.492Z,29
2019-03-10T00:00:47.077Z,30
2019-03-10T00:00:52.550Z,31
2019-03-10T00:01:04.488Z,30
2019-03-10T00:01:07.891Z,31
2019-03-10T00:01:19.911Z,33
2019-03-10T00:01:25.465Z,34
2019-03-10T00:01:32.031Z,32
2019-03-10T00:01:34.237Z,31
2019-03-10T00:01:38.786Z,32
2019-03-10T00:01:44.380Z,31
2019-03-10T00:01:48.804Z,30
2019-03-10T00:01:56.398Z,29
2019-03-10T00:02:00.971Z,28
2019-03-10T00:02:06.571Z,29
2019-03-10T00:02:10.461Z,30
2019-03-10T00:02:17.344Z,29
2019-03-10T00:02:23.954Z,30
2019-03-10T00:02:28.520Z,29
2019-03-10T00:02:36.324Z,28
2019-03-10T00:02:41.829Z,27
2019-03-10T00:02:45.292Z,26
2019-03-10T00:02:48.662Z,27
2019-03-10T00:02:50.927Z,28
2019-03-10T00:03:05.292Z,29
2019-03-10T00:03:08.737Z,30
2019-03-10T00:03:15.512Z,29
2019-03-10T00:03:22.339Z,30
2019-03-10T00:03:25.731Z,31
2019-03-10T00:03:34.735Z,32
2019-03-10T00:03:39.319Z,31
2019-03-10T00:03:42.730Z,32
2019-03-10T00:03:50.303Z,31
2019-03-10T00:03:52.547Z,32
2019-03-10T00:03:58.580Z,30
2019-03-10T00:04:01.902Z,31
2019-03-10T00:04:07.413Z,29
2019-03-10T00:04:19.391Z,30
2019-03-10T00:04:26.252Z,31
2019-03-10T00:04:29.656Z,30
2019-03-10T00:04:35.434Z,31
2019-03-10T00:04:45.443Z,32
2019-03-10T00:04:51.051Z,31
2019-03-10T00:04:54.410Z,30
2019-03-10T00:05:25.451Z,31
2019-03-10T00:05:27.973Z,32
2019-03-10T00:05:37.943Z,33
2019-03-10T00:05:59.166Z,32
2019-03-10T00:06:05.812Z,31
2019-03-10T00:06:10.262Z,32
2019-03-10T00:06:15.617Z,34
2019-03-10T00:06:20.375Z,33
2019-03-10T00:06:30.370Z,32
2019-03-10T00:06:33.729Z,31
2019-03-10T00:06:39.171Z,32
2019-03-10T00:06:42.535Z,31
2019-03-10T00:06:46.942Z,30
2019-03-10T00:06:51.336Z,29
2019-03-10T00:06:55.745Z,28
2019-03-10T00:07:00.097Z,29
2019-03-10T00:07:04.651Z,30
2019-03-10T00:07:12.270Z,28
2019-03-10T00:07:16.660Z,27
2019-03-10T00:07:20.028Z,28
2019-03-10T00:07:24.526Z,27
2019-03-10T00:07:29.027Z,29
2019-03-10T00:07:34.526Z,30
2019-03-10T00:07:37.924Z,29
2019-03-10T00:07:41.362Z,30
2019-03-10T00:07:44.760Z,31
2019-03-10T00:07:52.504Z,30
2019-03-10T00:07:55.893Z,31
2019-03-10T00:07:59.208Z,32
2019-03-10T00:08:02.464Z,31
2019-03-10T00:08:20.287Z,32
2019-03-10T00:08:25.810Z,33
2019-03-10T00:08:31.808Z,32
2019-03-10T00:08:37.323Z,31
2019-03-10T00:08:41.776Z,32
2019-03-10T00:08:44.005Z,33
2019-03-10T00:08:49.514Z,32
2019-03-10T00:09:00.764Z,33
2019-03-10T00:09:02.981Z,32
2019-03-10T00:09:08.609Z,30
2019-03-10T00:09:14.018Z,27
2019-03-10T00:09:18.543Z,28
2019-03-10T00:09:25.222Z,30
2019-03-10T00:09:28.687Z,31
2019-03-10T00:09:31.014Z,32
2019-03-10T00:09:35.393Z,31
2019-03-10T00:09:43.128Z,32
2019-03-10T00:09:47.574Z,31
2019-03-10T00:09:51.985Z,32
2019-03-10T00:10:01.116Z,31
2019-03-10T00:10:05.544Z,32
2019-03-10T00:10:11.019Z,34
2019-03-10T00:10:14.427Z,33
2019-03-10T00:10:18.802Z,34
2019-03-10T00:10:24.308Z,33
2019-03-10T00:10:36.653Z,32
2019-03-10T00:10:46.692Z,31
2019-03-10T00:10:49.968Z,32
2019-03-10T00:11:03.225Z,31
2019-03-10T00:11:16.352Z,30
2019-03-10T00:11:54.864Z,29
2019-03-10T00:11:58.285Z,28
2019-03-10T00:12:09.419Z,29
2019-03-10T00:12:13.777Z,30
2019-03-10T00:12:19.229Z,29
2019-03-10T00:12:33.337Z,30
2019-03-10T00:12:38.960Z,29
2019-03-10T00:12:43.343Z,30
2019-03-10T00:12:45.829Z,31
2019-03-10T00:12:53.679Z,32
2019-03-10T00:12:57.042Z,33
2019-03-10T00:12:59.244Z,34
2019-03-10T00:13:03.718Z,33
2019-03-10T00:13:09.334Z,32
2019-03-10T00:13:21.425Z,31
2019-03-10T00:13:30.179Z,30
2019-03-10T00:13:32.409Z,29
2019-03-10T00:13:35.736Z,31
2019-03-10T00:13:45.983Z,32
2019-03-10T00:13:49.439Z,33
2019-03-10T00:13:52.825Z,34
2019-03-10T00:13:58.394Z,35
2019-03-10T00:14:02.959Z,33
2019-03-10T00:14:06.420Z,32
2019-03-10T00:14:32.949Z,33
2019-03-10T00:14:45.205Z,34
2019-03-10T00:14:49.639Z,35
2019-03-10T00:14:51.875Z,34
2019-03-10T00:14:55.136Z,33
2019-03-10T00:14:59.731Z,34
2019-03-10T00:15:05.318Z,35
2019-03-10T00:15:09.700Z,34
2019-03-10T00:15:16.257Z,33
2019-03-10T00:15:27.218Z,32
2019-03-10T00:15:32.855Z,29
2019-03-10T00:15:40.697Z,30
2019-03-10T00:15:46.398Z,29
2019-03-10T00:15:53.045Z,30
2019-03-10T00:15:56.623Z,31
2019-03-10T00:16:00.076Z,32
2019-03-10T00:16:14.384Z,33
2019-03-10T00:16:26.920Z,34
2019-03-10T00:16:30.227Z,33
2019-03-10T00:16:34.717Z,32
2019-03-10T00:16:45.632Z,33
2019-03-10T00:16:48.937Z,32
2019-03-10T00:16:56.737Z,31
2019-03-10T00:17:00.047Z,32
2019-03-10T00:17:14.287Z,31
2019-03-10T00:17:28.498Z,32
2019-03-10T00:17:33.030Z,30
2019-03-10T00:17:40.797Z,31
2019-03-10T00:17:47.591Z,32
2019-03-10T00:17:53.138Z,31
2019-03-10T00:17:57.657Z,30
2019-03-10T00:18:01.056Z,29
2019-03-10T00:18:04.477Z,30
2019-03-10T00:18:06.785Z,29
2019-03-10T00:18:15.509Z,31
2019-03-10T00:18:26.720Z,32
2019-03-10T00:18:34.408Z,31
2019-03-10T00:18:38.775Z,32
2019-03-10T00:18:48.751Z,31
2019-03-10T00:18:56.657Z,30
2019-03-10T00:19:00.015Z,31
2019-03-10T00:19:06.680Z,30
2019-03-10T00:19:20.089Z,31
2019-03-10T00:19:29.118Z,32
2019-03-10T00:19:37.894Z,33
2019-03-10T00:19:39.079Z,32
2019-03-10T00:19:42.389Z,33
2019-03-10T00:19:43.455Z,32
2019-03-10T00:19:56.669Z,31
2019-03-10T00:20:06.058Z,30
2019-03-10T00:20:15.852Z,31
2019-03-10T00:20:19.233Z,30
2019-03-10T00:20:21.596Z,32
2019-03-10T00:20:27.010Z,31
2019-03-10T00:20:31.442Z,30
2019-03-10T00:20:34.864Z,31
2019-03-10T00:20:42.714Z,30
2019-03-10T00:20:48.237Z,32
2019-03-10T00:20:53.809Z,31
2019-03-10T00:20:57.123Z,33
2019-03-10T00:21:00.392Z,32
2019-03-10T00:21:02.711Z,34
2019-03-10T00:21:07.174Z,35
2019-03-10T00:21:08.302Z,34
2019-03-10T00:21:11.584Z,35
2019-03-10T00:21:13.834Z,36
2019-03-10T00:21:18.253Z,35
2019-03-10T00:21:21.587Z,34
2019-03-10T00:21:28.343Z,32
2019-03-10T00:21:35.137Z,31
2019-03-10T00:21:39.648Z,30
2019-03-10T00:21:43.079Z,29
2019-03-10T00:21:46.487Z,30
2019-03-10T00:21:51.985Z,28
2019-03-10T00:21:58.614Z,27
2019-03-10T00:22:04.382Z,26
2019-03-10T00:22:08.855Z,27
2019-03-10T00:22:12.262Z,29
2019-03-10T00:22:15.564Z,30
2019-03-10T00:22:22.284Z,32
2019-03-10T00:22:28.839Z,30
2019-03-10T00:22:33.289Z,32
2019-03-10T00:22:35.648Z,31
2019-03-10T00:22:40.185Z,32
2019-03-10T00:22:44.549Z,33
2019-03-10T00:22:46.779Z,32
2019-03-10T00:22:50.166Z,33
2019-03-10T00:22:54.586Z,32
2019-03-10T00:23:11.073Z,31
2019-03-10T00:23:15.607Z,32
2019-03-10T00:23:37.099Z,31
2019-03-10T00:23:42.657Z,30
2019-03-10T00:23:51.528Z,31
2019-03-10T00:23:57.205Z,30
2019-03-10T00:24:05.982Z,29
2019-03-10T00:24:12.628Z,30
2019-03-10T00:24:22.429Z,29
2019-03-10T00:24:25.765Z,30
2019-03-10T00:24:33.641Z,29
2019-03-10T00:24:43.610Z,30
2019-03-10T00:24:51.380Z,31
2019-03-10T00:24:55.865Z,32
2019-03-10T00:24:59.243Z,31
2019-03-10T00:25:11.454Z,32
2019-03-10T00:25:22.432Z,33
2019-03-10T00:25:35.721Z,32
2019-03-10T00:25:43.718Z,31
2019-03-10T00:25:53.691Z,32
2019-03-10T00:25:56.975Z,31
2019-03-10T00:26:02.560Z,32
2019-03-10T00:26:06.898Z,31
2019-03-10T00:26:10.221Z,30
2019-03-10T00:26:14.607Z,31
2019-03-10T00:26:29.792Z,30
2019-03-10T00:26:31.925Z,29
2019-03-10T00:26:41.732Z,30
2019-03-10T00:26:43.995Z,31
2019-03-10T00:26:52.887Z,30
2019-03-10T00:26:57.338Z,32
2019-03-10T00:27:02.871Z,31
2019-03-10T00:27:03.940Z,32
2019-03-10T00:27:10.441Z,33
2019-03-10T00:27:14.901Z,32
2019-03-10T00:27:22.743Z,33
2019-03-10T00:27:26.172Z,32
2019-03-10T00:27:31.786Z,29
2019-03-10T00:27:37.296Z,30
2019-03-10T00:27:43.998Z,32
2019-03-10T00:27:49.598Z,31
2019-03-10T00:27:56.285Z,32
2019-03-10T00:28:02.075Z,31
2019-03-10T00:28:09.947Z,32
2019-03-10T00:28:22.701Z,33
2019-03-10T00:28:26.050Z,32
2019-03-10T00:28:30.728Z,31
2019-03-10T00:28:33.095Z,32
2019-03-10T00:28:35.280Z,31
2019-03-10T00:28:44.022Z,32
2019-03-10T00:28:49.451Z,31
2019-03-10T00:28:56.145Z,30
2019-03-10T00:29:00.596Z,31
2019-03-10T00:29:06.255Z,29
2019-03-10T00:29:18.751Z,30
2019-03-10T00:29:24.375Z,31
2019-03-10T00:29:26.739Z,30
2019-03-10T00:29:31.195Z,31
2019-03-10T00:29:38.811Z,30
2019-03-10T00:29:48.923Z,31
2019-03-10T00:29:52.242Z,32
2019-03-10T00:30:02.065Z,31
2019-03-10T00:30:03.221Z,32
2019-03-10T00:30:07.773Z,31
2019-03-10T00:30:14.415Z,30
2019-03-10T00:30:16.757Z,31
2019-03-10T00:30:27.973Z,32
2019-03-10T00:30:34.603Z,33
2019-03-10T00:30:40.235Z,32
2019-03-10T00:30:45.939Z,31
2019-03-10T00:30:56.514Z,30
2019-03-10T00:31:03.296Z,31
2019-03-10T00:31:06.648Z,30
2019-03-10T00:31:15.682Z,29
2019-03-10T00:31:19.170Z,28
2019-03-10T00:31:24.773Z,30
2019-03-10T00:31:42.680Z,29
2019-03-10T00:31:49.360Z,30
2019-03-10T00:31:51.713Z,31
2019-03-10T00:31:57.249Z,32
2019-03-10T00:32:10.717Z,31
2019-03-10T00:32:19.517Z,32
2019-03-10T00:32:23.986Z,33
2019-03-10T00:32:26.195Z,32
2019-03-10T00:32:30.677Z,31
2019-03-10T00:32:36.271Z,30
2019-03-10T00:32:56.007Z,32
2019-03-10T00:33:03.998Z,30
2019-03-10T00:33:08.407Z,31
2019-03-10T00:33:13.887Z,30
2019-03-10T00:33:25.098Z,29
2019-03-10T00:33:30.717Z,30
2019-03-10T00:33:34.100Z,29
2019-03-10T00:33:38.677Z,28
2019-03-10T00:33:44.134Z,29
2019-03-10T00:33:49.673Z,30
2019-03-10T00:33:53.115Z,29
2019-03-10T00:34:01.976Z,31
2019-03-10T00:34:09.676Z,30
2019-03-10T00:34:16.723Z,31
2019-03-10T00:34:41.434Z,30
2019-03-10T00:34:49.131Z,31
2019-03-10T00:34:52.747Z,32
2019-03-10T00:34:57.178Z,31
2019-03-10T00:35:15.371Z,32
2019-03-10T00:35:23.301Z,33
2019-03-10T00:35:27.756Z,32
2019-03-10T00:35:34.314Z,33
2019-03-10T00:35:39.985Z,32
2019-03-10T00:35:45.454Z,30
2019-03-10T00:35:55.560Z,29
2019-03-10T00:36:02.244Z,30
2019-03-10T00:36:14.812Z,29
2019-03-10T00:36:22.644Z,28
2019-03-10T00:36:28.328Z,29
2019-03-10T00:36:32.945Z,28
2019-03-10T00:36:40.829Z,27
2019-03-10T00:36:48.778Z,28
2019-03-10T00:36:55.199Z,29
2019-03-10T00:37:01.114Z,28
2019-03-10T00:37:04.550Z,29
2019-03-10T00:37:12.344Z,30
2019-03-10T00:37:19.099Z,29
2019-03-10T00:37:21.395Z,30
2019-03-10T00:37:26.931Z,31
2019-03-10T00:37:30.329Z,32
2019-03-10T00:37:33.686Z,31
2019-03-10T00:37:38.139Z,30
2019-03-10T00:37:48.152Z,33
2019-03-10T00:37:51.586Z,32
2019-03-10T00:38:15.914Z,30
2019-03-10T00:38:20.372Z,31
2019-03-10T00:38:24.882Z,30
2019-03-10T00:38:30.561Z,31
2019-03-10T00:38:34.994Z,30
2019-03-10T00:38:40.507Z,29
2019-03-10T00:38:50.504Z,30
2019-03-10T00:39:01.554Z,31
2019-03-10T00:39:05.937Z,30
2019-03-10T00:39:11.530Z,31
2019-03-10T00:39:23.710Z,32
2019-03-10T00:39:33.666Z,31
2019-03-10T00:39:39.124Z,30
2019-03-10T00:39:43.540Z,31
2019-03-10T00:39:53.115Z,29
2019-03-10T00:40:11.174Z,28
2019-03-10T00:40:15.882Z,29
2019-03-10T00:40:23.772Z,31
2019-03-10T00:40:33.644Z,30
2019-03-10T00:40:38.121Z,31
2019-03-10T00:40:41.504Z,32
2019-03-10T00:40:52.402Z,25
2019-03-10T00:40:55.719Z,27
2019-03-10T00:41:00.298Z,28
2019-03-10T00:41:05.891Z,29
2019-03-10T00:41:17.141Z,30
2019-03-10T00:41:23.811Z,31
2019-03-10T00:41:28.203Z,30
2019-03-10T00:41:48.024Z,29
2019-03-10T00:41:52.525Z,28
2019-03-10T00:42:00.467Z,27
2019-03-10T00:42:04.950Z,28
2019-03-10T00:42:08.373Z,29
2019-03-10T00:42:13.904Z,30
2019-03-10T00:42:35.975Z,29
2019-03-10T00:42:41.596Z,30
2019-03-10T00:42:53.756Z,29
2019-03-10T00:43:02.788Z,30
2019-03-10T00:43:14.073Z,29
2019-03-10T00:43:18.516Z,30
2019-03-10T00:43:21.927Z,29
2019-03-10T00:43:27.456Z,28
2019-03-10T00:43:31.989Z,29
2019-03-10T00:43:39.799Z,30
2019-03-10T00:43:45.548Z,29
2019-03-10T00:43:50.101Z,28
2019-03-10T00:43:55.552Z,30
2019-03-10T00:44:04.422Z,31
2019-03-10T00:44:08.982Z,32
2019-03-10T00:44:16.461Z,30
2019-03-10T00:44:27.650Z,31
2019-03-10T00:44:32.213Z,30
2019-03-10T00:44:38.909Z,29
2019-03-10T00:44:42.333Z,30
2019-03-10T00:44:55.661Z,29
2019-03-10T00:45:00.163Z,28
2019-03-10T00:45:04.845Z,29
2019-03-10T00:45:13.854Z,27
2019-03-10T00:45:20.624Z,28
2019-03-10T00:45:28.536Z,29
2019-03-10T00:45:31.959Z,28
2019-03-10T00:45:38.583Z,29
2019-03-10T00:45:46.335Z,27
2019-03-10T00:45:56.209Z,28
2019-03-10T00:45:58.495Z,29
2019-03-10T00:46:02.975Z,30
2019-03-10T00:46:06.530Z,29
2019-03-10T00:46:20.087Z,30
2019-03-10T00:46:58.961Z,29
2019-03-10T00:47:04.543Z,28
2019-03-10T00:47:16.367Z,27
2019-03-10T00:47:18.641Z,28
2019-03-10T00:47:25.385Z,29
2019-03-10T00:47:27.648Z,30
2019-03-10T00:47:36.495Z,31
2019-03-10T00:47:37.702Z,32
2019-03-10T00:47:55.375Z,31
2019-03-10T00:48:03.271Z,30
2019-03-10T00:48:06.766Z,31
2019-03-10T00:48:10.123Z,30
2019-03-10T00:48:12.364Z,31
2019-03-10T00:48:14.717Z,30
2019-03-10T00:48:19.217Z,29
2019-03-10T00:48:27.111Z,28
2019-03-10T00:48:31.538Z,27
2019-03-10T00:48:33.898Z,26
2019-03-10T00:48:39.425Z,27
2019-03-10T00:48:48.433Z,26
2019-03-10T00:48:51.764Z,27
2019-03-10T00:49:01.767Z,28
2019-03-10T00:49:07.487Z,29
2019-03-10T00:49:11.963Z,30
2019-03-10T00:49:32.066Z,31
2019-03-10T00:49:34.408Z,30
2019-03-10T00:49:42.462Z,29
2019-03-10T00:49:50.347Z,30
2019-03-10T00:49:58.201Z,29
2019-03-10T00:50:03.840Z,28
2019-03-10T00:50:08.503Z,27
2019-03-10T00:50:21.575Z,26
2019-03-10T00:50:27.290Z,25
2019-03-10T00:50:30.701Z,26
2019-03-10T00:50:37.514Z,25
2019-03-10T00:50:45.342Z,26
2019-03-10T00:50:52.194Z,25
2019-03-10T00:51:04.329Z,29
2019-03-10T00:51:08.821Z,28
2019-03-10T00:51:13.253Z,27
2019-03-10T00:51:19.018Z,26
2019-03-10T00:51:23.511Z,25
2019-03-10T00:51:28.060Z,23
2019-03-10T00:51:35.577Z,24
2019-03-10T00:51:47.958Z,23
2019-03-10T00:51:53.685Z,24
2019-03-10T00:52:06.891Z,25
2019-03-10T00:52:11.325Z,26
2019-03-10T00:52:19.351Z,27
2019-03-10T00:52:23.692Z,28
2019-03-10T00:52:33.633Z,29
2019-03-10T00:52:38.101Z,30
2019-03-10T00:52:49.213Z,29
2019-03-10T00:52:55.927Z,30
2019-03-10T00:53:05.872Z,27
2019-03-10T00:53:11.487Z,29
2019-03-10T00:53:15.944Z,27
2019-03-10T00:53:21.742Z,29
2019-03-10T00:53:27.435Z,30
2019-03-10T00:53:31.947Z,31
2019-03-10T00:53:34.319Z,30
2019-03-10T00:53:38.723Z,32
2019-03-10T00:53:41.047Z,31
2019-03-10T00:53:45.526Z,30
2019-03-10T00:53:48.926Z,31
2019-03-10T00:53:54.568Z,30
2019-03-10T00:54:00.303Z,29
2019-03-10T00:54:04.815Z,30
2019-03-10T00:54:10.377Z,31
2019-03-10T00:54:12.627Z,30
2019-03-10T00:54:23.234Z,29
2019-03-10T00:54:27.803Z,30
2019-03-10T00:54:37.754Z,28
2019-03-10T00:54:42.384Z,27
2019-03-10T00:54:46.962Z,28
2019-03-10T00:54:51.450Z,27
2019-03-10T00:54:57.072Z,26
2019-03-10T00:55:03.735Z,27
2019-03-10T00:55:09.274Z,24
2019-03-10T00:55:12.717Z,23
2019-03-10T00:55:17.148Z,22
2019-03-10T00:55:19.405Z,21
2019-03-10T00:55:22.727Z,22
2019-03-10T00:55:24.878Z,24
2019-03-10T00:55:29.471Z,25
2019-03-10T00:55:32.881Z,27
2019-03-10T00:55:38.305Z,28
2019-03-10T00:55:46.176Z,26
2019-03-10T00:55:48.446Z,27
2019-03-10T00:55:52.879Z,26
2019-03-10T00:55:55.172Z,25
2019-03-10T00:56:02.961Z,24
2019-03-10T00:56:07.430Z,23
2019-03-10T00:56:14.162Z,22
2019-03-10T00:56:16.475Z,23
2019-03-10T00:56:23.269Z,24
2019-03-10T00:56:34.316Z,25
2019-03-10T00:56:45.436Z,27
2019-03-10T00:56:57.705Z,26
2019-03-10T00:57:10.765Z,27
2019-03-10T00:57:14.186Z,28
2019-03-10T00:57:19.564Z,27
2019-03-10T00:57:25.201Z,26
2019-03-10T00:57:28.684Z,25
2019-03-10T00:57:36.440Z,23
2019-03-10T00:57:42.048Z,24
2019-03-10T00:57:50.938Z,25
2019-03-10T00:57:58.703Z,26
2019-03-10T00:58:04.186Z,27
2019-03-10T00:58:09.796Z,28
2019-03-10T00:58:14.335Z,30
2019-03-10T00:58:21.998Z,32
2019-03-10T00:58:25.450Z,33
2019-03-10T00:58:30.007Z,32
2019-03-10T00:58:38.096Z,31
2019-03-10T00:58:44.937Z,30
2019-03-10T00:58:50.479Z,29
2019-03-10T00:58:56.084Z,28
2019-03-10T00:58:59.467Z,32
2019-03-10T00:59:05.283Z,33
2019-03-10T00:59:07.524Z,34
2019-03-10T00:59:13.052Z,23
2019-03-10T00:59:18.649Z,22
2019-03-10T00:59:26.451Z,24
2019-03-10T00:59:32.983Z,23
2019-03-10T00:59:37.489Z,24
2019-03-10T00:59:39.739Z,25
2019-03-10T00:59:49.856Z,27
2019-03-10T00:59:55.479Z,26
2019-03-10T01:00:02.650Z,27
2019-03-10T01:00:07.008Z,28
2019-03-10T01:00:10.269Z,30
2019-03-10T01:00:16.162Z,32
2019-03-10T01:00:25.102Z,31
2019-03-10T01:00:33.889Z,30
2019-03-10T01:00:40.536Z,29
2019-03-10T01:00:46.282Z,28
2019-03-10T01:00:49.623Z,29
2019-03-10T01:00:56.536Z,28
2019-03-10T01:01:02.127Z,27
2019-03-10T01:01:15.394Z,30
2019-03-10T01:01:22.040Z,31
2019-03-10T01:01:26.449Z,30
2019-03-10T01:01:31.959Z,29
2019-03-10T01:01:34.268Z,31
2019-03-10T01:01:39.818Z,32
2019-03-10T01:01:46.687Z,31
2019-03-10T01:01:52.260Z,30
2019-03-10T01:01:59.011Z,29
2019-03-10T01:02:03.457Z,30
2019-03-10T01:02:09.097Z,29
2019-03-10T01:02:11.364Z,28
2019-03-10T01:02:20.212Z,29
2019-03-10T01:02:22.490Z,28
2019-03-10T01:02:26.024Z,27
2019-03-10T01:02:34.011Z,26
2019-03-10T01:02:41.955Z,24
2019-03-10T01:02:49.776Z,23
2019-03-10T01:02:55.446Z,26
2019-03-10T01:03:01.097Z,29
2019-03-10T01:03:03.418Z,30
2019-03-10T01:03:06.786Z,32
2019-03-10T01:03:17.802Z,27
2019-03-10T01:03:25.627Z,28
2019-03-10T01:03:33.437Z,27
2019-03-10T01:03:39.153Z,26
2019-03-10T01:03:43.689Z,25
2019-03-10T01:03:48.115Z,26
2019-03-10T01:03:50.378Z,25
2019-03-10T01:03:56.011Z,24
2019-03-10T01:04:04.896Z,25
2019-03-10T01:04:09.330Z,26
2019-03-10T01:04:19.460Z,25
2019-03-10T01:04:22.724Z,26
2019-03-10T01:04:32.685Z,27
2019-03-10T01:04:36.051Z,26
2019-03-10T01:04:44.942Z,27
2019-03-10T01:04:51.802Z,26
2019-03-10T01:04:55.246Z,28
2019-03-10T01:04:57.767Z,27
2019-03-10T01:05:03.631Z,28
2019-03-10T01:05:10.454Z,27
2019-03-10T01:05:20.226Z,25
2019-03-10T01:05:31.359Z,24
2019-03-10T01:05:36.925Z,25
2019-03-10T01:05:45.894Z,24
2019-03-10T01:05:51.584Z,25
2019-03-10T01:06:00.565Z,24
2019-03-10T01:06:03.951Z,25
2019-03-10T01:06:11.942Z,26
2019-03-10T01:06:17.508Z,25
2019-03-10T01:06:27.614Z,26
2019-03-10T01:06:44.071Z,27
2019-03-10T01:06:51.733Z,28
2019-03-10T01:06:56.313Z,29
2019-03-10T01:07:06.415Z,28
2019-03-10T01:07:13.454Z,27
2019-03-10T01:07:17.107Z,25
2019-03-10T01:07:22.719Z,26
2019-03-10T01:07:27.247Z,27
2019-03-10T01:07:45.980Z,26
2019-03-10T01:07:58.156Z,27
2019-03-10T01:08:04.876Z,26
2019-03-10T01:08:12.629Z,25
2019-03-10T01:08:17.083Z,24
2019-03-10T01:08:23.741Z,25
2019-03-10T01:08:29.316Z,24
2019-03-10T01:08:35.943Z,25
2019-03-10T01:08:40.501Z,24
2019-03-10T01:08:48.181Z,25
2019-03-10T01:08:52.565Z,24
2019-03-10T01:08:55.914Z,25
2019-03-10T01:09:00.212Z,24
2019-03-10T01:09:07.893Z,26
2019-03-10T01:09:15.537Z,25
2019-03-10T01:09:18.991Z,24
2019-03-10T01:09:24.532Z,25
2019-03-10T01:09:41.063Z,24
2019-03-10T01:09:47.816Z,25
2019-03-10T01:09:50.130Z,26
2019-03-10T01:09:53.669Z,25
2019-03-10T01:09:58.215Z,27
2019-03-10T01:10:04.936Z,28
2019-03-10T01:10:11.758Z,29
2019-03-10T01:10:17.403Z,30
2019-03-10T01:10:26.259Z,40
2019-03-10T01:10:34.053Z,39
2019-03-10T01:10:37.376Z,42
2019-03-10T01:10:40.819Z,41
2019-03-10T01:10:46.391Z,40
2019-03-10T01:10:48.662Z,39
2019-03-10T01:10:54.252Z,37
2019-03-10T01:10:57.623Z,34
2019-03-10T01:11:07.570Z,35
2019-03-10T01:11:12.056Z,34
2019-03-10T01:11:16.710Z,33
2019-03-10T01:11:18.986Z,34
2019-03-10T01:11:27.966Z,35
2019-03-10T01:11:33.507Z,33
2019-03-10T01:11:48.926Z,34
2019-03-10T01:11:54.550Z,35
2019-03-10T01:11:57.927Z,34
2019-03-10T01:12:03.481Z,33
2019-03-10T01:12:11.313Z,34
2019-03-10T01:12:14.795Z,33
2019-03-10T01:12:19.347Z,32
2019-03-10T01:12:20.467Z,33
2019-03-10T01:12:28.197Z,30
2019-03-10T01:12:40.399Z,29
2019-03-10T01:12:43.794Z,28
2019-03-10T01:12:48.302Z,29
2019-03-10T01:12:55.145Z,28
2019-03-10T01:13:00.843Z,27
2019-03-10T01:13:03.901Z,28
2019-03-10T01:13:08.396Z,27
2019-03-10T01:13:11.740Z,29
2019-03-10T01:13:20.661Z,30
2019-03-10T01:13:27.302Z,29
2019-03-10T01:13:34.039Z,30
2019-03-10T01:13:38.491Z,32
2019-03-10T01:13:45.154Z,36
2019-03-10T01:13:49.807Z,40
2019-03-10T01:13:53.232Z,42
2019-03-10T01:13:57.725Z,45
2019-03-10T01:14:01.142Z,46
2019-03-10T01:14:05.663Z,48
2019-03-10T01:14:07.960Z,50
2019-03-10T01:14:15.681Z,51
2019-03-10T01:14:20.966Z,52
2019-03-10T01:14:29.643Z,35
2019-03-10T01:14:42.719Z,34
2019-03-10T01:14:46.082Z,33
2019-03-10T01:14:50.574Z,32
2019-03-10T01:14:55.107Z,31
2019-03-10T01:15:02.994Z,30
2019-03-10T01:15:08.726Z,26
2019-03-10T01:15:14.364Z,24
2019-03-10T01:15:28.879Z,25
2019-03-10T01:15:33.329Z,26
2019-03-10T01:15:38.825Z,27
2019-03-10T01:15:43.400Z,26
2019-03-10T01:15:45.729Z,28
2019-03-10T01:15:51.273Z,29
2019-03-10T01:16:00.265Z,30
2019-03-10T01:16:08.269Z,29
2019-03-10T01:16:14.959Z,30
2019-03-10T01:16:21.636Z,28
2019-03-10T01:16:31.688Z,26
2019-03-10T01:16:41.712Z,25
2019-03-10T01:16:50.723Z,24
2019-03-10T01:16:54.047Z,25
2019-03-10T01:16:57.430Z,24
2019-03-10T01:17:00.818Z,25
2019-03-10T01:17:09.768Z,26
2019-03-10T01:17:16.478Z,27
2019-03-10T01:17:21.977Z,28
2019-03-10T01:17:25.340Z,29
2019-03-10T01:17:30.866Z,28
2019-03-10T01:17:37.508Z,29
2019-03-10T01:17:42.051Z,30
2019-03-10T01:17:48.651Z,29
2019-03-10T01:17:52.052Z,28
2019-03-10T01:17:55.498Z,29
2019-03-10T01:17:59.985Z,30
2019-03-10T01:18:14.145Z,29
2019-03-10T01:18:17.570Z,28
2019-03-10T01:18:27.506Z,27
2019-03-10T01:18:35.293Z,26
2019-03-10T01:18:40.875Z,25
2019-03-10T01:18:45.395Z,24
2019-03-10T01:18:52.041Z,23
2019-03-10T01:18:54.355Z,24
2019-03-10T01:18:58.736Z,25
2019-03-10T01:19:03.197Z,24
2019-03-10T01:19:06.553Z,25
2019-03-10T01:19:11.075Z,27
2019-03-10T01:19:17.796Z,26
2019-03-10T01:19:23.494Z,28
2019-03-10T01:19:34.395Z,27
2019-03-10T01:19:42.208Z,26
2019-03-10T01:19:45.591Z,27
2019-03-10T01:19:50.161Z,29
2019-03-10T01:19:56.829Z,30
2019-03-10T01:20:02.555Z,31
2019-03-10T01:20:06.024Z,30
2019-03-10T01:20:11.596Z,31
2019-03-10T01:20:17.198Z,32
2019-03-10T01:20:21.711Z,33
2019-03-10T01:20:38.445Z,32
2019-03-10T01:20:47.344Z,31
2019-03-10T01:20:49.589Z,30
2019-03-10T01:20:55.259Z,29
2019-03-10T01:21:03.164Z,30
2019-03-10T01:21:08.776Z,32
2019-03-10T01:21:13.273Z,31
2019-03-10T01:21:17.818Z,32
2019-03-10T01:21:22.311Z,31
2019-03-10T01:21:30.095Z,30
2019-03-10T01:21:36.723Z,32
2019-03-10T01:21:41.189Z,31
2019-03-10T01:21:44.585Z,32
2019-03-10T01:21:49.081Z,31
2019-03-10T01:21:53.498Z,32
2019-03-10T01:21:57.935Z,31
2019-03-10T01:22:01.266Z,30
2019-03-10T01:22:14.589Z,31
2019-03-10T01:22:16.825Z,32
2019-03-10T01:22:21.425Z,33
2019-03-10T01:22:25.905Z,32
2019-03-10T01:22:29.273Z,33
2019-03-10T01:22:32.603Z,35
2019-03-10T01:22:37.208Z,36
2019-03-10T01:22:44.917Z,35
2019-03-10T01:22:48.331Z,36
2019-03-10T01:22:49.553Z,35
2019-03-10T01:22:58.558Z,33
2019-03-10T01:23:05.196Z,32
2019-03-10T01:23:08.639Z,33
2019-03-10T01:23:14.163Z,32
2019-03-10T01:23:16.375Z,33
2019-03-10T01:23:19.657Z,32
2019-03-10T01:23:24.209Z,33
2019-03-10T01:23:30.964Z,32
2019-03-10T01:23:38.698Z,29
2019-03-10T01:23:44.033Z,31
2019-03-10T01:23:48.466Z,32
2019-03-10T01:23:52.947Z,33
2019-03-10T01:23:57.432Z,34
2019-03-10T01:24:03.048Z,35
2019-03-10T01:24:07.666Z,33
2019-03-10T01:24:19.867Z,32
2019-03-10T01:24:31.058Z,33
2019-03-10T01:24:36.600Z,35
2019-03-10T01:24:38.856Z,36
2019-03-10T01:24:49.874Z,37
2019-03-10T01:24:53.172Z,36
2019-03-10T01:24:58.667Z,35
2019-03-10T01:25:02.056Z,32
2019-03-10T01:25:04.463Z,31
2019-03-10T01:25:09.943Z,29
2019-03-10T01:25:14.497Z,30
2019-03-10T01:25:21.224Z,29
2019-03-10T01:25:29.058Z,30
2019-03-10T01:25:40.124Z,29
2019-03-10T01:25:42.383Z,28
2019-03-10T01:25:44.669Z,27
2019-03-10T01:26:10.154Z,28
2019-03-10T01:26:15.708Z,29
2019-03-10T01:26:19.196Z,28
2019-03-10T01:26:24.804Z,27
2019-03-10T01:26:29.270Z,26
2019-03-10T01:26:44.841Z,27
2019-03-10T01:26:50.478Z,28
2019-03-10T01:26:54.935Z,29
2019-03-10T01:27:08.133Z,28
2019-03-10T01:27:10.411Z,29
2019-03-10T01:27:16.001Z,30
2019-03-10T01:27:28.131Z,32
2019-03-10T01:27:42.528Z,42
2019-03-10T01:27:45.925Z,41
2019-03-10T01:27:53.791Z,39
2019-03-10T01:27:59.396Z,37
2019-03-10T01:28:02.814Z,34
2019-03-10T01:28:08.528Z,33
2019-03-10T01:28:11.899Z,32
2019-03-10T01:28:18.018Z,31
2019-03-10T01:28:23.523Z,30
2019-03-10T01:28:29.202Z,31
2019-03-10T01:28:32.647Z,30
2019-03-10T01:28:36.151Z,31
2019-03-10T01:28:41.670Z,30
2019-03-10T01:28:49.594Z,29
2019-03-10T01:28:59.791Z,28
2019-03-10T01:29:04.289Z,29
2019-03-10T01:29:09.878Z,31
2019-03-10T01:29:13.289Z,32
2019-03-10T01:29:18.807Z,35
2019-03-10T01:29:22.172Z,37
2019-03-10T01:29:26.688Z,38
2019-03-10T01:29:30.006Z,39
2019-03-10T01:29:33.470Z,40
2019-03-10T01:29:36.792Z,41
2019-03-10T01:29:39.059Z,43
2019-03-10T01:29:49.067Z,41
2019-03-10T01:29:51.344Z,40
2019-03-10T01:29:57.074Z,39
2019-03-10T01:30:00.468Z,37
2019-03-10T01:30:06.222Z,35
2019-03-10T01:30:09.746Z,36
2019-03-10T01:30:13.169Z,34
2019-03-10T01:30:18.909Z,33
2019-03-10T01:30:22.391Z,32
2019-03-10T01:30:26.960Z,34
2019-03-10T01:30:30.316Z,35
2019-03-10T01:30:36.877Z,34
2019-03-10T01:30:44.880Z,38